Time;durP1;ratioP1;P1;durP2;ratioP2;P2;SDS_P1;SDS_P2;PMS_P1;PMS_P2;Temp;Humidity;BMP_temperature;BMP_pressure;BME280_temperature;BME280_humidity;BME280_pressure;Samples;Min_cycle;Max_cycle;Signal;HPM_P1;HPM_P2
2022/05/19 00:01:55;;;;;;;17.30;15.15;;;15.20;99.90;;;;;;5053422;28;20052;-54
2022/05/19 00:04:21;;;;;;;18.83;16.08;;;15.20;99.90;;;;;;5050722;28;20116;-54
2022/05/19 00:06:47;;;;;;;19.08;15.02;;;15.20;99.90;;;;;;5041209;28;20034;-53
2022/05/19 00:09:13;;;;;;;19.55;16.80;;;15.20;99.90;;;;;;5041481;28;20570;-54
2022/05/19 00:11:39;;;;;;;18.27;15.23;;;15.10;99.90;;;;;;5055016;28;20107;-54
2022/05/19 00:14:05;;;;;;;20.05;14.65;;;15.10;99.90;;;;;;5039944;28;20049;-54
2022/05/19 00:16:32;;;;;;;20.90;15.57;;;15.00;99.90;;;;;;5041401;28;20046;-55
2022/05/19 00:18:57;;;;;;;21.83;16.70;;;15.10;99.90;;;;;;5042470;28;20045;-54
2022/05/19 00:21:24;;;;;;;25.02;19.85;;;15.20;99.90;;;;;;5060549;28;20416;-54
2022/05/19 00:23:49;;;;;;;22.85;19.65;;;15.20;99.90;;;;;;5045616;28;20121;-55
2022/05/19 00:26:15;;;;;;;24.50;19.83;;;15.20;99.90;;;;;;5040982;28;20050;-54
2022/05/19 00:28:41;;;;;;;26.10;20.42;;;15.30;99.90;;;;;;5060411;28;20477;-54
2022/05/19 00:31:07;;;;;;;27.02;20.10;;;15.40;99.90;;;;;;5050444;28;20106;-55
2022/05/19 00:33:33;;;;;;;22.27;19.65;;;15.30;99.90;;;;;;5052671;28;20144;-54
2022/05/19 00:36:09;;;;;;;25.35;19.58;;;15.40;99.90;;;;;;5059680;28;20068;-53
2022/05/19 00:38:35;;;;;;;28.50;19.88;;;15.40;99.90;;;;;;5058189;28;20075;-53
2022/05/19 00:41:00;;;;;;;27.33;21.00;;;15.40;99.90;;;;;;5042274;28;20080;-53
2022/05/19 00:43:32;;;;;;;26.20;20.55;;;15.40;99.90;;;;;;5059901;28;20496;-53
2022/05/19 00:46:12;;;;;;;26.55;21.10;;;15.40;99.90;;;;;;5060626;28;20110;-54
2022/05/19 00:48:47;;;;;;;26.38;20.52;;;15.40;99.90;;;;;;5045280;28;20063;-54
2022/05/19 00:51:16;;;;;;;27.60;22.70;;;15.50;99.90;;;;;;5060238;28;20041;-53
2022/05/19 00:53:51;;;;;;;26.92;21.58;;;15.50;99.90;;;;;;5052100;28;20054;-53
2022/05/19 00:56:25;;;;;;;28.55;20.58;;;15.50;99.90;;;;;;5051749;28;20041;-53
2022/05/19 00:59:03;;;;;;;27.60;21.38;;;15.50;99.90;;;;;;5060260;28;20045;-54
2022/05/19 01:01:29;;;;;;;27.58;21.73;;;15.50;99.90;;;;;;5056923;28;20067;-54
2022/05/19 01:04:01;;;;;;;29.88;22.92;;;15.50;99.90;;;;;;5049450;28;20041;-54
2022/05/19 01:06:28;;;;;;;24.67;22.13;;;15.50;99.90;;;;;;5053265;28;20059;-51
2022/05/19 01:09:08;;;;;;;26.48;22.75;;;15.50;99.90;;;;;;5041596;28;20060;-53
2022/05/19 01:11:36;;;;;;;26.70;22.60;;;15.60;99.90;;;;;;5046890;28;20041;-54
2022/05/19 01:14:02;;;;;;;25.52;22.83;;;15.50;99.90;;;;;;5058040;28;20060;-54
2022/05/19 01:16:28;;;;;;;26.48;23.65;;;15.60;99.90;;;;;;5060204;28;20049;-54
2022/05/19 01:18:55;;;;;;;26.02;22.80;;;15.50;99.90;;;;;;5058701;28;20174;-54
2022/05/19 01:21:22;;;;;;;30.38;24.25;;;15.70;99.90;;;;;;5059680;28;20048;-52
2022/05/19 01:24:12;;;;;;;29.02;23.70;;;15.60;99.90;;;;;;5045395;28;20098;-53
2022/05/19 01:26:52;;;;;;;29.30;22.52;;;15.60;99.90;;;;;;5042578;28;20094;-53
2022/05/19 01:29:23;;;;;;;28.58;24.83;;;15.60;99.90;;;;;;5059818;28;20061;-54
2022/05/19 01:31:58;;;;;;;30.95;25.58;;;15.60;99.90;;;;;;5040512;28;20041;-52
2022/05/19 01:34:29;;;;;;;28.23;25.25;;;15.60;99.90;;;;;;5055279;28;20069;-53
2022/05/19 01:36:56;;;;;;;32.60;26.00;;;15.60;99.90;;;;;;5048488;28;20509;-53
2022/05/19 01:39:28;;;;;;;33.20;25.30;;;15.60;99.90;;;;;;5038575;28;20048;-53
2022/05/19 01:42:07;;;;;;;30.70;27.15;;;15.70;99.90;;;;;;5030623;28;20053;-53
2022/05/19 01:44:55;;;;;;;32.20;28.17;;;15.70;99.90;;;;;;5058115;28;20120;-53
2022/05/19 01:47:31;;;;;;;33.95;28.73;;;15.60;99.90;;;;;;5058609;28;20131;-54
2022/05/19 01:50:01;;;;;;;39.05;30.30;;;15.60;99.90;;;;;;5059097;28;20056;-53
2022/05/19 01:53:05;;;;;;;35.40;30.50;;;15.60;99.90;;;;;;5057927;28;20049;-53
2022/05/19 01:56:00;;;;;;;37.47;31.15;;;15.60;99.90;;;;;;5058695;28;20059;-53
2022/05/19 01:58:41;;;;;;;39.50;31.25;;;15.60;99.90;;;;;;5041927;28;20041;-53
2022/05/19 02:01:08;;;;;;;34.63;30.05;;;15.60;99.90;;;;;;5037799;28;20045;-53
2022/05/19 02:03:57;;;;;;;34.20;30.48;;;15.70;99.90;;;;;;5039349;28;20041;-53
2022/05/19 02:06:35;;;;;;;38.08;31.17;;;15.60;99.90;;;;;;5030117;28;20041;-53
2022/05/19 02:09:05;;;;;;;36.22;30.58;;;15.60;99.90;;;;;;5038280;28;20045;-53
2022/05/19 02:11:37;;;;;;;39.42;31.15;;;15.50;99.90;;;;;;5043378;28;20048;-52
2022/05/19 02:14:07;;;;;;;39.97;31.80;;;15.60;99.90;;;;;;5037624;28;20052;-53
2022/05/19 02:16:33;;;;;;;36.78;32.85;;;15.50;99.90;;;;;;5039003;28;20039;-54
2022/05/19 02:18:59;;;;;;;38.88;30.48;;;15.50;99.90;;;;;;5037794;28;20075;-54
2022/05/19 02:21:27;;;;;;;44.47;33.03;;;15.50;99.90;;;;;;5038537;28;20065;-53
2022/05/19 02:23:56;;;;;;;40.20;33.92;;;15.50;99.90;;;;;;5049454;28;20389;-54
2022/05/19 02:26:22;;;;;;;38.45;34.20;;;15.40;99.90;;;;;;5055156;28;20092;-53
2022/05/19 02:28:58;;;;;;;38.38;34.03;;;15.40;99.90;;;;;;5034632;28;20044;-54
2022/05/19 02:31:25;;;;;;;45.22;34.25;;;15.50;99.90;;;;;;5049637;28;20037;-54
2022/05/19 02:33:51;;;;;;;37.10;32.80;;;15.50;99.90;;;;;;5020837;28;20049;-54
2022/05/19 02:36:16;;;;;;;44.28;36.35;;;15.50;99.90;;;;;;5042222;28;20043;-55
2022/05/19 02:38:43;;;;;;;43.33;35.20;;;15.40;99.90;;;;;;5050653;28;20060;-54
2022/05/19 02:41:09;;;;;;;41.67;35.00;;;15.50;99.90;;;;;;5054747;28;20068;-55
2022/05/19 02:43:35;;;;;;;40.28;33.45;;;15.40;99.90;;;;;;5037468;28;20049;-55
2022/05/19 02:46:00;;;;;;;40.88;33.95;;;15.40;99.90;;;;;;5043195;28;20045;-52
2022/05/19 02:48:26;;;;;;;41.22;34.67;;;15.50;99.90;;;;;;5056802;28;20099;-54
2022/05/19 02:50:51;;;;;;;44.58;33.95;;;15.50;99.90;;;;;;5040650;28;20393;-54
2022/05/19 02:53:18;;;;;;;39.60;33.88;;;15.60;99.90;;;;;;5057466;28;20075;-53
2022/05/19 02:55:44;;;;;;;41.55;34.33;;;15.60;99.90;;;;;;5040058;28;20053;-53
2022/05/19 02:58:12;;;;;;;45.85;35.70;;;15.60;99.90;;;;;;5057327;28;20071;-53
2022/05/19 03:00:40;;;;;;;49.33;38.17;;;15.70;99.90;;;;;;5054593;28;20087;-53
2022/05/19 03:03:06;;;;;;;46.50;37.15;;;15.60;99.90;;;;;;5058242;28;20045;-53
2022/05/19 03:05:33;;;;;;;47.50;38.92;;;15.80;99.90;;;;;;5035761;28;20060;-53
2022/05/19 03:07:59;;;;;;;49.17;39.95;;;15.70;99.90;;;;;;5051986;28;20057;-55
2022/05/19 03:10:25;;;;;;;47.60;38.97;;;15.80;99.90;;;;;;5041922;28;20080;-53
2022/05/19 03:12:53;;;;;;;48.17;37.65;;;15.80;99.90;;;;;;5039384;28;20054;-54
2022/05/19 03:15:19;;;;;;;43.22;35.60;;;15.80;99.90;;;;;;5050965;28;20041;-53
2022/05/19 03:17:45;;;;;;;47.45;36.72;;;15.80;99.90;;;;;;5057212;28;20099;-55
2022/05/19 03:20:12;;;;;;;46.67;37.95;;;15.90;99.90;;;;;;5058165;28;20049;-54
2022/05/19 03:22:37;;;;;;;45.03;37.83;;;15.90;99.90;;;;;;5056824;28;20045;-54
2022/05/19 03:25:06;;;;;;;47.42;38.63;;;15.90;99.90;;;;;;5058249;28;20037;-55
2022/05/19 03:27:32;;;;;;;48.53;38.53;;;16.00;99.90;;;;;;5053941;28;20088;-55
2022/05/19 03:29:57;;;;;;;46.30;38.47;;;16.00;99.90;;;;;;5037881;28;20482;-53
2022/05/19 03:32:23;;;;;;;45.85;36.00;;;16.00;99.90;;;;;;5040566;28;20049;-54
2022/05/19 03:34:49;;;;;;;46.17;38.67;;;16.00;99.90;;;;;;5049826;28;20051;-54
2022/05/19 03:37:14;;;;;;;47.17;37.42;;;16.10;99.90;;;;;;5061292;28;20458;-54
2022/05/19 03:39:40;;;;;;;47.17;37.17;;;16.00;99.90;;;;;;5056259;28;20041;-54
2022/05/19 03:42:08;;;;;;;48.17;37.03;;;16.10;99.90;;;;;;5031353;28;20049;-54
2022/05/19 03:44:35;;;;;;;46.55;35.45;;;16.10;99.90;;;;;;5040654;28;20034;-54
2022/05/19 03:47:01;;;;;;;42.35;34.53;;;16.20;99.90;;;;;;5041235;28;20046;-53
2022/05/19 03:49:27;;;;;;;41.10;33.65;;;16.20;99.90;;;;;;5052295;28;20108;-55
2022/05/19 03:51:52;;;;;;;43.35;34.25;;;16.20;99.90;;;;;;5060763;28;20041;-54
2022/05/19 03:54:18;;;;;;;46.50;34.45;;;16.20;99.90;;;;;;5061405;28;20059;-53
2022/05/19 03:56:44;;;;;;;40.65;34.08;;;16.20;99.90;;;;;;5060029;28;20041;-53
2022/05/19 03:59:10;;;;;;;43.85;33.88;;;16.20;99.90;;;;;;5061808;28;20040;-52
2022/05/19 04:01:36;;;;;;;44.65;34.67;;;16.20;99.90;;;;;;5056279;28;20045;-53
2022/05/19 04:04:02;;;;;;;43.05;34.42;;;16.30;99.90;;;;;;5051047;28;20095;-53
2022/05/19 04:06:29;;;;;;;46.60;37.35;;;16.30;99.90;;;;;;5051667;28;20045;-53
2022/05/19 04:08:55;;;;;;;44.03;35.35;;;16.20;99.90;;;;;;5040679;28;20112;-54
2022/05/19 04:11:20;;;;;;;44.85;35.17;;;16.20;99.90;;;;;;5042983;28;20042;-53
2022/05/19 04:13:46;;;;;;;43.50;35.88;;;16.30;99.90;;;;;;5052688;28;20179;-54
2022/05/19 04:16:12;;;;;;;41.50;33.10;;;16.30;99.90;;;;;;5056337;28;20040;-55
2022/05/19 04:18:38;;;;;;;48.25;35.72;;;16.30;99.90;;;;;;5048597;28;20539;-54
2022/05/19 04:21:05;;;;;;;43.60;33.63;;;16.30;99.90;;;;;;5041194;28;20093;-54
2022/05/19 04:23:31;;;;;;;44.38;34.88;;;16.30;99.90;;;;;;5040344;28;20037;-53
2022/05/19 04:25:56;;;;;;;42.25;34.28;;;16.20;99.90;;;;;;5040377;28;20045;-54
2022/05/19 04:28:22;;;;;;;41.95;32.03;;;16.30;99.90;;;;;;5047485;28;20033;-53
2022/05/19 04:30:48;;;;;;;40.17;32.63;;;16.30;99.90;;;;;;5059788;28;20080;-54
2022/05/19 04:33:14;;;;;;;42.65;32.05;;;16.40;99.90;;;;;;5060918;28;20056;-53
2022/05/19 04:35:39;;;;;;;42.45;32.92;;;16.40;99.90;;;;;;5050960;28;20049;-53
2022/05/19 04:38:11;;;;;;;38.72;30.30;;;16.50;99.90;;;;;;5058994;28;20610;-53
2022/05/19 04:40:38;;;;;;;41.85;31.40;;;16.50;99.90;;;;;;5055035;28;20084;-52
2022/05/19 04:43:05;;;;;;;36.15;29.38;;;16.50;99.90;;;;;;5022203;28;20076;-53
2022/05/19 04:45:31;;;;;;;39.72;30.63;;;16.60;99.90;;;;;;5041640;28;20597;-52
2022/05/19 04:47:56;;;;;;;42.00;30.38;;;16.70;99.90;;;;;;5034437;28;20044;-54
2022/05/19 04:50:22;;;;;;;41.10;33.67;;;16.80;99.90;;;;;;5060357;28;20051;-50
2022/05/19 04:52:48;;;;;;;44.30;33.95;;;16.80;99.90;;;;;;5058735;28;20535;-53
2022/05/19 04:55:13;;;;;;;42.22;31.48;;;16.80;99.90;;;;;;5059027;28;20072;-53
2022/05/19 04:57:42;;;;;;;41.42;33.22;;;16.90;99.90;;;;;;5059540;28;20055;-53
2022/05/19 05:00:09;;;;;;;45.38;36.92;;;16.90;99.90;;;;;;5059941;28;20097;-53
2022/05/19 05:02:35;;;;;;;51.20;38.85;;;17.00;99.90;;;;;;5060196;28;20388;-53
2022/05/19 05:05:00;;;;;;;52.70;39.80;;;17.00;99.90;;;;;;5041470;28;20047;-54
2022/05/19 05:07:26;;;;;;;47.00;39.72;;;17.10;99.90;;;;;;5060056;28;20045;-54
2022/05/19 05:09:52;;;;;;;58.20;46.75;;;17.10;99.90;;;;;;5058823;28;20615;-55
2022/05/19 05:12:17;;;;;;;58.08;45.92;;;17.20;99.90;;;;;;5060007;28;20619;-54
2022/05/19 05:14:43;;;;;;;63.78;48.72;;;17.10;99.90;;;;;;5059099;28;20084;-54
2022/05/19 05:17:09;;;;;;;60.97;48.95;;;17.10;99.90;;;;;;5058941;28;20527;-54
2022/05/19 05:19:34;;;;;;;65.18;53.88;;;17.10;99.90;;;;;;5058400;28;20571;-54
2022/05/19 05:22:00;;;;;;;68.78;54.28;;;17.10;99.90;;;;;;5034895;28;20046;-54
2022/05/19 05:24:27;;;;;;;62.78;49.55;;;17.10;99.90;;;;;;5039912;28;20106;-54
2022/05/19 05:26:53;;;;;;;64.88;49.05;;;17.10;99.90;;;;;;5038612;28;20082;-53
2022/05/19 05:29:19;;;;;;;61.03;48.38;;;17.10;99.90;;;;;;5039811;28;20124;-54
2022/05/19 05:31:45;;;;;;;53.95;45.05;;;17.20;99.90;;;;;;5040110;28;20060;-54
2022/05/19 05:34:11;;;;;;;59.00;48.28;;;17.30;99.90;;;;;;5059007;28;20311;-55
2022/05/19 05:36:37;;;;;;;61.38;48.75;;;17.30;99.90;;;;;;5059198;28;20048;-56
2022/05/19 05:39:03;;;;;;;55.40;43.35;;;17.30;99.90;;;;;;5040907;28;20037;-55
2022/05/19 05:41:29;;;;;;;54.05;46.03;;;17.40;99.90;;;;;;5057824;28;20064;-55
2022/05/19 05:43:54;;;;;;;50.05;40.22;;;17.40;99.90;;;;;;5046544;28;20497;-55
2022/05/19 05:46:20;;;;;;;52.40;43.50;;;17.50;99.90;;;;;;5039537;28;20494;-56
2022/05/19 05:48:48;;;;;;;49.72;41.05;;;17.50;99.90;;;;;;5053990;28;20036;-55
2022/05/19 05:51:16;;;;;;;51.13;37.88;;;17.60;99.90;;;;;;5054136;28;20114;-55
2022/05/19 05:53:43;;;;;;;45.67;36.80;;;17.70;99.90;;;;;;5043757;28;20063;-55
2022/05/19 05:56:12;;;;;;;48.35;38.92;;;17.80;99.90;;;;;;5055322;28;20057;-55
2022/05/19 05:58:38;;;;;;;43.75;35.38;;;17.80;99.90;;;;;;5055831;28;20056;-55
2022/05/19 06:01:06;;;;;;;41.45;34.88;;;17.90;99.90;;;;;;5054143;28;20044;-55
2022/05/19 06:03:32;;;;;;;42.15;36.17;;;17.90;99.90;;;;;;5055746;28;20068;-55
2022/05/19 06:05:58;;;;;;;38.78;32.60;;;17.90;99.90;;;;;;5054676;28;20037;-55
2022/05/19 06:08:25;;;;;;;39.83;31.65;;;18.00;99.90;;;;;;5047804;28;20042;-55
2022/05/19 06:10:51;;;;;;;37.65;30.25;;;18.00;99.90;;;;;;5035630;28;20052;-54
2022/05/19 06:13:17;;;;;;;40.38;29.85;;;18.00;99.90;;;;;;5037477;28;20049;-57
2022/05/19 06:15:43;;;;;;;40.97;30.95;;;18.00;99.90;;;;;;5051188;28;20155;-55
2022/05/19 06:18:09;;;;;;;32.60;28.73;;;18.00;99.90;;;;;;5037837;28;20050;-55
2022/05/19 06:20:35;;;;;;;39.97;31.00;;;18.10;99.90;;;;;;5035933;28;20152;-53
2022/05/19 06:23:03;;;;;;;39.67;32.17;;;18.10;99.90;;;;;;5040271;28;20049;-56
2022/05/19 06:25:29;;;;;;;33.83;29.17;;;18.20;99.90;;;;;;5045778;28;20044;-54
2022/05/19 06:27:56;;;;;;;37.03;30.08;;;18.20;99.90;;;;;;5040337;28;20643;-54
2022/05/19 06:30:22;;;;;;;40.03;32.28;;;18.10;99.90;;;;;;5034689;28;20041;-55
2022/05/19 06:32:48;;;;;;;33.53;27.88;;;18.20;99.90;;;;;;5017573;28;20049;-55
2022/05/19 06:35:18;;;;;;;32.70;27.35;;;18.10;99.90;;;;;;5033999;28;20049;-56
2022/05/19 06:37:44;;;;;;;40.08;29.63;;;17.90;99.90;;;;;;5044366;28;20781;-55
2022/05/19 06:40:13;;;;;;;33.60;23.45;;;17.70;99.90;;;;;;5053980;28;20041;-55
2022/05/19 06:42:39;;;;;;;33.13;24.35;;;17.60;99.90;;;;;;5055323;28;20057;-55
2022/05/19 06:45:06;;;;;;;27.30;22.88;;;17.60;99.90;;;;;;5046451;28;20041;-55
2022/05/19 06:47:32;;;;;;;31.33;24.20;;;17.60;99.90;;;;;;5054151;28;20109;-55
2022/05/19 06:49:58;;;;;;;35.95;26.48;;;17.60;99.90;;;;;;5054741;28;20037;-54
2022/05/19 06:52:28;;;;;;;35.95;26.63;;;17.60;99.90;;;;;;5044219;28;20083;-56
2022/05/19 06:54:57;;;;;;;37.72;30.98;;;17.50;99.90;;;;;;5037387;28;20136;-55
2022/05/19 06:57:25;;;;;;;31.38;26.52;;;17.50;99.90;;;;;;5049996;28;20052;-57
2022/05/19 06:59:51;;;;;;;35.13;27.30;;;17.40;99.90;;;;;;5053856;28;20033;-56
2022/05/19 07:02:22;;;;;;;34.88;27.20;;;17.40;99.90;;;;;;5053358;28;20037;-55
2022/05/19 07:04:48;;;;;;;36.25;28.83;;;17.50;99.90;;;;;;5053302;28;20045;-52
2022/05/19 07:07:14;;;;;;;33.28;25.83;;;17.50;99.90;;;;;;5054813;28;20055;-53
2022/05/19 07:09:40;;;;;;;34.28;29.30;;;17.60;99.90;;;;;;5053447;28;20083;-53
2022/05/19 07:12:09;;;;;;;33.90;26.08;;;17.60;99.90;;;;;;5058164;28;20257;-54
2022/05/19 07:14:37;;;;;;;29.83;26.42;;;17.60;99.90;;;;;;5050509;28;20073;-51
2022/05/19 07:17:03;;;;;;;35.15;28.60;;;17.60;99.90;;;;;;5052793;28;20053;-53
2022/05/19 07:22:19;;;;;;;37.08;31.92;;;17.80;99.90;;;;;;5057972;28;20057;-52
2022/05/19 07:24:46;;;;;;;36.88;30.65;;;17.80;99.90;;;;;;5048560;28;20041;-52
2022/05/19 07:27:12;;;;;;;31.40;27.35;;;17.80;99.90;;;;;;5044633;28;20050;-53
2022/05/19 07:29:38;;;;;;;31.08;24.67;;;17.80;99.90;;;;;;5045233;28;20052;-53
2022/05/19 07:32:05;;;;;;;25.60;21.42;;;17.80;99.90;;;;;;5058184;28;20043;-52
2022/05/19 07:34:33;;;;;;;28.92;22.77;;;17.70;99.90;;;;;;5057886;28;20045;-51
2022/05/19 07:36:59;;;;;;;29.85;22.63;;;17.80;99.90;;;;;;5058206;28;20096;-51
2022/05/19 07:39:25;;;;;;;26.55;18.40;;;17.90;99.90;;;;;;5057311;28;20045;-53
2022/05/19 07:41:53;;;;;;;22.83;15.77;;;18.00;99.90;;;;;;5048155;28;20052;-52
2022/05/19 07:44:19;;;;;;;22.58;14.13;;;18.00;99.90;;;;;;5040993;28;20068;-53
2022/05/19 07:46:45;;;;;;;20.83;12.90;;;18.00;99.90;;;;;;5056902;28;20064;-50
2022/05/19 07:49:11;;;;;;;22.92;10.73;;;18.00;99.90;;;;;;5055711;28;20029;-52
2022/05/19 07:51:40;;;;;;;20.13;10.68;;;18.00;99.90;;;;;;5057515;28;20068;-51
2022/05/19 07:54:15;;;;;;;20.23;11.45;;;18.00;99.90;;;;;;5057620;28;20061;-51
2022/05/19 07:56:42;;;;;;;19.30;10.82;;;18.10;99.90;;;;;;5051362;28;20049;-52
2022/05/19 07:59:08;;;;;;;19.60;10.80;;;18.00;99.90;;;;;;5056851;28;20234;-51
2022/05/19 08:01:35;;;;;;;21.35;10.77;;;18.10;99.90;;;;;;5053730;28;20097;-51
2022/05/19 08:04:01;;;;;;;20.50;9.63;;;18.10;99.90;;;;;;5038085;28;20049;-50
2022/05/19 08:06:30;;;;;;;19.02;9.02;;;18.10;99.90;;;;;;5037495;28;20105;-53
2022/05/19 08:09:00;;;;;;;19.02;9.35;;;18.20;99.90;;;;;;5003259;28;20060;-50
2022/05/19 08:11:27;;;;;;;19.65;9.75;;;18.30;99.90;;;;;;5041516;28;20053;-52
2022/05/19 08:16:37;;;;;;;20.73;9.60;;;18.40;99.90;;;;;;5052872;28;20056;-53
2022/05/19 08:19:04;;;;;;;19.08;9.95;;;18.30;99.90;;;;;;5056805;28;20053;-52
2022/05/19 08:21:31;;;;;;;17.17;9.65;;;18.30;99.90;;;;;;5057088;28;20045;-51
2022/05/19 08:23:57;;;;;;;20.17;9.70;;;18.30;99.90;;;;;;5047988;28;20042;-51
2022/05/19 08:26:23;;;;;;;19.70;11.48;;;18.30;99.90;;;;;;5042457;28;20064;-51
2022/05/19 08:28:50;;;;;;;18.27;10.80;;;18.20;99.90;;;;;;5057603;28;20053;-50
2022/05/19 08:31:20;;;;;;;15.32;9.20;;;18.20;99.90;;;;;;5053979;28;20124;-53
2022/05/19 08:33:47;;;;;;;15.98;10.30;;;18.30;99.90;;;;;;5037692;28;20384;-53
2022/05/19 08:36:13;;;;;;;17.25;9.63;;;18.30;99.90;;;;;;5043145;28;20057;-50
2022/05/19 08:38:40;;;;;;;19.70;10.30;;;18.30;99.90;;;;;;5056534;28;20087;-50
2022/05/19 08:41:08;;;;;;;18.55;10.05;;;18.30;99.90;;;;;;5057332;28;20077;-49
2022/05/19 08:43:51;;;;;;;19.73;11.07;;;18.40;99.90;;;;;;5056410;28;20057;-53
2022/05/19 08:46:21;;;;;;;15.30;9.98;;;18.40;99.90;;;;;;5057365;28;20098;-54
2022/05/19 08:48:50;;;;;;;20.40;11.20;;;18.30;99.90;;;;;;5061520;28;20061;-53
2022/05/19 08:51:17;;;;;;;17.25;10.38;;;18.50;99.90;;;;;;5053621;28;20044;-53
2022/05/19 08:53:43;;;;;;;18.75;11.15;;;18.60;99.90;;;;;;5054289;28;20063;-53
2022/05/19 08:56:19;;;;;;;14.18;9.82;;;18.80;99.90;;;;;;5056154;28;20049;-54
2022/05/19 08:59:22;;;;;;;19.15;10.85;;;18.90;99.90;;;;;;5057155;28;20707;-54
2022/05/19 09:01:55;;;;;;;16.15;10.52;;;19.10;99.90;;;;;;5055474;28;20045;-53
2022/05/19 09:04:30;;;;;;;15.38;9.32;;;19.30;99.90;;;;;;5035919;28;20057;-54
2022/05/19 09:10:08;;;;;;;14.27;9.23;;;19.60;99.90;;;;;;5035580;28;20092;-54
2022/05/19 09:12:37;;;;;;;14.70;9.80;;;19.70;99.90;;;;;;5051895;28;20055;-51
2022/05/19 09:15:05;;;;;;;14.27;8.90;;;19.60;99.90;;;;;;5040050;28;20057;-54
2022/05/19 09:17:35;;;;;;;14.75;9.32;;;19.90;99.90;;;;;;5059075;28;20061;-55
2022/05/19 09:20:10;;;;;;;14.30;9.80;;;20.00;99.90;;;;;;5059864;28;20037;-53
2022/05/19 09:22:36;;;;;;;13.18;9.45;;;20.10;99.90;;;;;;5058637;28;20033;-53
2022/05/19 09:25:09;;;;;;;10.80;8.55;;;20.10;99.90;;;;;;5045337;28;20109;-54
2022/05/19 09:27:38;;;;;;;13.20;9.25;;;20.20;99.90;;;;;;5038863;28;20053;-53
2022/05/19 09:30:07;;;;;;;12.13;9.07;;;20.40;99.90;;;;;;5039133;28;20076;-54
2022/05/19 09:32:45;;;;;;;13.10;9.05;;;20.40;99.90;;;;;;5039625;28;20065;-53
2022/05/19 09:35:43;;;;;;;11.80;7.75;;;20.60;99.90;;;;;;5037913;28;20053;-54
2022/05/19 09:38:13;;;;;;;14.10;8.75;;;20.70;99.90;;;;;;5052197;28;20096;-54
2022/05/19 09:40:46;;;;;;;13.07;9.88;;;20.90;99.90;;;;;;5039519;28;20105;-54
2022/05/19 09:43:33;;;;;;;12.70;8.85;;;20.80;99.90;;;;;;5058061;28;20045;-54
2022/05/19 09:46:09;;;;;;;13.75;9.15;;;20.70;99.90;;;;;;5054938;28;20049;-54
2022/05/19 09:48:41;;;;;;;15.00;8.50;;;20.90;99.90;;;;;;5053601;28;20507;-54
2022/05/19 09:51:13;;;;;;;13.20;8.10;;;20.90;99.90;;;;;;5055751;28;20055;-53
2022/05/19 09:53:54;;;;;;;12.32;8.02;;;21.00;99.90;;;;;;5034213;28;20042;-54
2022/05/19 09:56:23;;;;;;;13.48;9.48;;;21.10;99.90;;;;;;5034658;28;20049;-54
2022/05/19 09:58:52;;;;;;;13.55;9.40;;;21.00;99.90;;;;;;5023169;28;20128;-55
2022/05/19 10:01:39;;;;;;;13.02;8.18;;;20.90;99.90;;;;;;5034454;28;20440;-54
2022/05/19 10:04:41;;;;;;;12.98;7.75;;;20.90;99.90;;;;;;5022122;28;20038;-54
2022/05/19 10:07:23;;;;;;;12.98;8.32;;;21.10;99.90;;;;;;5019020;28;20080;-54
2022/05/19 10:09:51;;;;;;;14.15;8.52;;;21.00;99.90;;;;;;5017027;28;20053;-55
2022/05/19 10:12:25;;;;;;;13.82;8.65;;;20.90;99.90;;;;;;5019117;28;20042;-55
2022/05/19 10:15:14;;;;;;;15.85;9.82;;;21.00;99.90;;;;;;5018657;28;20399;-54
2022/05/19 10:18:04;;;;;;;12.30;8.75;;;20.90;99.90;;;;;;5037588;28;20049;-54
2022/05/19 10:20:37;;;;;;;14.57;7.88;;;21.00;99.90;;;;;;5039069;28;20109;-55
2022/05/19 10:23:23;;;;;;;13.93;9.07;;;21.40;99.90;;;;;;5037804;28;20448;-54
2022/05/19 10:26:07;;;;;;;15.18;8.35;;;21.40;99.90;;;;;;5037938;28;20046;-55
2022/05/19 10:31:57;;;;;;;13.13;8.02;;;22.00;99.90;;;;;;5017914;28;20053;-55
2022/05/19 10:34:38;;;;;;;12.25;7.45;;;22.30;99.90;;;;;;5035765;28;20041;-55
2022/05/19 10:37:21;;;;;;;15.27;8.23;;;22.50;99.90;;;;;;5018683;28;20041;-54
2022/05/19 10:40:28;;;;;;;12.60;8.57;;;22.50;99.90;;;;;;5029555;28;20058;-55
2022/05/19 10:43:04;;;;;;;14.82;7.63;;;22.30;99.90;;;;;;5023200;28;20041;-55
2022/05/19 10:45:35;;;;;;;16.15;8.65;;;22.30;99.90;;;;;;5017861;28;20054;-53
2022/05/19 10:48:28;;;;;;;10.27;6.97;;;22.30;99.90;;;;;;5017302;28;20049;-56
2022/05/19 10:51:14;;;;;;;14.80;8.48;;;22.30;99.90;;;;;;5017197;28;20429;-52
2022/05/19 10:53:54;;;;;;;10.73;7.35;;;22.30;99.90;;;;;;5034204;28;20061;-53
2022/05/19 10:56:22;;;;;;;11.57;6.65;;;22.50;99.90;;;;;;5049534;28;20114;-54
2022/05/19 10:59:25;;;;;;;10.57;6.20;;;22.60;99.90;;;;;;5057830;28;20093;-53
2022/05/19 11:02:25;;;;;;;9.73;5.85;;;22.80;99.90;;;;;;5035634;28;20135;-53
2022/05/19 11:05:17;;;;;;;9.55;5.82;;;23.10;99.90;;;;;;5044846;28;20050;-54
2022/05/19 11:08:10;;;;;;;9.95;4.78;;;23.50;99.90;;;;;;5040183;28;20138;-54
2022/05/19 11:10:46;;;;;;;10.07;4.55;;;23.80;99.90;;;;;;5033599;28;20600;-54
2022/05/19 11:13:25;;;;;;;9.57;5.20;;;24.10;99.90;;;;;;5038787;28;20045;-54
2022/05/19 11:16:13;;;;;;;10.32;4.72;;;24.30;99.90;;;;;;5057906;28;20061;-54
2022/05/19 11:19:05;;;;;;;10.43;5.47;;;24.30;99.90;;;;;;5056746;28;20055;-53
2022/05/19 11:21:39;;;;;;;;;;;24.20;99.90;;;;;;5057971;28;20052;-54
2022/05/19 11:24:28;;;;;;;7.72;4.28;;;24.20;99.90;;;;;;5058058;28;19984;-53
2022/05/19 11:27:01;;;;;;;9.10;5.75;;;24.40;99.90;;;;;;5019093;28;20455;-55
2022/05/19 11:29:45;;;;;;;9.02;5.13;;;24.10;99.90;;;;;;5058076;28;20143;-53
2022/05/19 11:32:19;;;;;;;12.05;6.00;;;24.00;99.90;;;;;;5057625;28;20068;-53
2022/05/19 11:34:44;;;;;;;10.88;6.13;;;24.30;99.90;;;;;;5041883;28;20050;-54
2022/05/19 11:37:14;;;;;;;12.02;6.95;;;24.50;99.90;;;;;;5057687;28;20052;-53
2022/05/19 11:39:54;;;;;;;8.13;5.18;;;24.60;99.90;;;;;;5056511;28;20088;-54
2022/05/19 11:42:51;;;;;;;12.50;6.25;;;24.50;99.90;;;;;;5044120;28;20058;-54
2022/05/19 11:45:34;;;;;;;9.85;6.53;;;24.60;99.90;;;;;;5043871;28;20053;-54
2022/05/19 11:56:41;;;;;;;11.40;7.70;;;24.20;99.90;;;;;;5052268;28;20527;-53
2022/05/19 11:59:10;;;;;;;13.35;7.95;;;23.90;99.90;;;;;;5061686;28;20051;-54
2022/05/19 12:01:43;;;;;;;10.68;7.32;;;23.60;99.90;;;;;;5060329;28;20040;-53
2022/05/19 12:04:24;;;;;;;11.25;7.50;;;23.50;99.90;;;;;;5060614;28;20040;-53
2022/05/19 12:07:11;;;;;;;13.15;8.82;;;23.30;99.90;;;;;;5061164;28;20087;-53
2022/05/19 12:09:38;;;;;;;12.27;9.75;;;23.10;99.90;;;;;;5052858;28;20053;-54
2022/05/19 12:12:24;;;;;;;13.85;9.57;;;23.00;99.90;;;;;;5053025;28;20565;-53
2022/05/19 12:15:21;;;;;;;12.00;8.73;;;22.90;99.90;;;;;;5050604;28;20045;-54
2022/05/19 12:18:27;;;;;;;11.98;8.80;;;22.70;99.90;;;;;;5051226;28;20041;-54
2022/05/19 12:21:02;;;;;;;11.98;8.27;;;22.70;99.90;;;;;;5025678;28;20064;-54
2022/05/19 12:23:39;;;;;;;12.57;8.30;;;22.60;99.90;;;;;;5053608;28;20053;-53
2022/05/19 12:26:16;;;;;;;11.93;9.00;;;22.50;99.90;;;;;;5056530;28;20052;-54
2022/05/19 12:29:33;;;;;;;12.68;8.52;;;22.40;99.90;;;;;;5059534;28;20037;-54
2022/05/19 12:32:19;;;;;;;15.15;9.20;;;22.00;99.90;;;;;;5012431;28;20053;-55
2022/05/19 12:34:59;;;;;;;14.70;11.45;;;21.60;99.90;;;;;;5058436;28;20048;-56
2022/05/19 12:37:39;;;;;;;15.85;12.20;;;21.50;99.90;;;;;;5058968;28;20106;-55
2022/05/19 12:40:19;;;;;;;14.45;11.15;;;21.30;99.90;;;;;;5058913;28;20072;-55
2022/05/19 12:42:45;;;;;;;13.93;10.27;;;21.30;99.90;;;;;;5059146;28;20049;-54
2022/05/19 12:45:21;;;;;;;13.07;10.48;;;21.20;99.90;;;;;;5059793;28;20048;-55
2022/05/19 12:48:06;;;;;;;16.15;11.18;;;21.00;99.90;;;;;;5059022;28;20041;-57
2022/05/19 12:50:46;;;;;;;15.35;5.25;;;20.60;99.90;;;;;;5040435;28;20064;-60
2022/05/19 12:53:24;;;;;;;14.35;4.10;;;18.50;99.90;;;;;;5021586;28;20140;-60
2022/05/19 12:55:55;;;;;;;11.88;4.60;;;17.80;99.90;;;;;;5047589;28;20728;-60
2022/05/19 12:58:41;;;;;;;9.73;4.63;;;17.20;99.90;;;;;;5038579;28;20080;-59
2022/05/19 13:01:12;;;;;;;13.18;8.00;;;17.10;99.90;;;;;;5021049;28;20117;-58
2022/05/19 13:03:41;;;;;;;18.30;11.77;;;17.40;99.90;;;;;;5052207;28;20116;-57
2022/05/19 13:06:07;;;;;;;21.98;16.30;;;17.40;99.90;;;;;;5058793;28;20052;-56
2022/05/19 13:08:49;;;;;;;22.73;18.05;;;17.50;99.90;;;;;;5056731;28;20048;-55
2022/05/19 13:11:21;;;;;;;18.33;16.20;;;17.70;99.90;;;;;;5052519;28;20049;-55
2022/05/19 13:13:55;;;;;;;21.00;15.25;;;17.50;99.90;;;;;;5038784;28;20041;-56